FMCH Airport Information

Runway Information
Runway 02 Length 9514 ft width 148 ft
Elevation 66 ft Threshold 0 ft Heading 10
Runway 20 Length 9514 ft Width 148 ft
Elevation 79 ft Threshold 0 ft Heading 190
Airport Frequencies
Type A/G Name A/G VOICE Frequency 465.7 MHZ
Type TWR Name TWR Frequency 119.7 MHZ
Airport Navaids
Type VOR-DME Name Prince Said Ibrahim Frequency 114700 KHZ
Airport Weather Information & NOTAM
ADDS - METARS form results

(1432 UTC 25 April 2018)
 
METAR text: FMCH 251400Z 19008KT 9999 SCT025 30/23 Q1012 NOSIG
Conditions at: FMCH (MORONI/HAHAIA IN, KM) observed 1400 UTC 25 April 2018
Temperature: 30.0°C (86°F)
Dewpoint: 23.0°C (73°F) [RH = 66%]
Pressure (altimeter): 29.88 inches Hg (1012.0 mb)
Winds: from the S (190 degrees) at 9 MPH (8 knots; 4.2 m/s)
Visibility: 6 or more miles (10+ km)
Ceiling: at least 12,000 feet AGL
Clouds: scattered clouds at 2500 feet AGL
Weather: no significant weather observed at this time